Du har inga inställningar för hoppväder.nu

Hoppväder.nu

Senast uppdaterat 00:09

UTC-tid

2019-06-25 kl. 22:09


Sol och måne

Solen går upp 3:15 och går ner 23:36 (beräknade cirkatider)
Nästa fullmåne blir om 20 dagar (2019-07-16)


Väderstation: Skydive Mohed

Väderrapport från: 2019-06-26 kl 00:08:56
Vindriktning: 330°
Vinden har varierat mellan 315° och 45° de senaste 10 minuterna.
Vindstyrka: 0,7 m/s
Byvind: 1 m/s
Lufttryck: 1029,6 hPa
Temperatur: 12,8°C, känns som: 13,0°C
Daggpunkt: 12,3°C
Luftfuktighet: 97%
Molnbas: 57 m




METAR

ESSD (Borlänge)
(19 minuter sedan)
ESSD 252150Z AUTO 22005KT 9999 BKN039/// OVC049/// 14/10 Q1023=



ESNN (Sundsvall-Härnösand)
(19 minuter sedan)
ESNN 252150Z AUTO 18002KT 9999 -RA FEW010/// BKN062/// BKN080/// 13/13 Q1022=












TAF

ESSD (Borlänge)
ESSD



ESNN (Sundsvall-Härnösand)
(279 minuter sedan)
ESNN 251730Z 2518/2521 22006KT 9999 -RA BKN060=





Kodnycklar till TAF och METAR






LHP

(Mohed är område D2b i Sydöstra delen)

Prognos är inte uppdaterad




Spotting

Hur fungerar spotthjälpen och Vindkartan?

Markvind är ca 0 m/s.



Vindkartan

Senast uppdaterad 00:09


All data kommer från LFV.se,
och från SÖFKs väderstation